sensor_id;sensor_type;location;lat;lon;timestamp;temperature;humidity
61841;DHT22;47773;53.174;6.614;2023-02-15T00:01:35;3.30;99.90
61841;DHT22;47773;53.174;6.614;2023-02-15T00:04:01;3.30;99.90
61841;DHT22;47773;53.174;6.614;2023-02-15T00:06:26;3.30;99.90
61841;DHT22;47773;53.174;6.614;2023-02-15T00:08:54;3.30;99.90
61841;DHT22;47773;53.174;6.614;2023-02-15T00:11:20;3.30;99.90
61841;DHT22;47773;53.174;6.614;2023-02-15T00:14:06;3.30;99.90
61841;DHT22;47773;53.174;6.614;2023-02-15T00:16:32;3.20;99.90
61841;DHT22;47773;53.174;6.614;2023-02-15T00:18:58;3.20;99.90
61841;DHT22;47773;53.174;6.614;2023-02-15T00:21:27;3.20;99.90
61841;DHT22;47773;53.174;6.614;2023-02-15T00:23:54;3.20;99.90
61841;DHT22;47773;53.174;6.614;2023-02-15T00:26:19;3.20;99.90
61841;DHT22;47773;53.174;6.614;2023-02-15T00:28:45;3.10;99.90
61841;DHT22;47773;53.174;6.614;2023-02-15T00:31:12;3.10;99.90
61841;DHT22;47773;53.174;6.614;2023-02-15T00:33:38;3.10;99.90
61841;DHT22;47773;53.174;6.614;2023-02-15T00:36:06;3.10;99.90
61841;DHT22;47773;53.174;6.614;2023-02-15T00:38:32;3.10;99.90
61841;DHT22;47773;53.174;6.614;2023-02-15T00:40:59;3.10;99.90
61841;DHT22;47773;53.174;6.614;2023-02-15T00:43:26;3.00;99.90
61841;DHT22;47773;53.174;6.614;2023-02-15T00:45:52;3.10;99.90
61841;DHT22;47773;53.174;6.614;2023-02-15T00:48:18;3.00;99.90
61841;DHT22;47773;53.174;6.614;2023-02-15T00:50:49;3.00;99.90
61841;DHT22;47773;53.174;6.614;2023-02-15T00:53:15;3.00;99.90
61841;DHT22;47773;53.174;6.614;2023-02-15T00:55:41;2.90;99.90
61841;DHT22;47773;53.174;6.614;2023-02-15T00:58:08;3.00;99.90
61841;DHT22;47773;53.174;6.614;2023-02-15T01:00:34;2.90;99.90
61841;DHT22;47773;53.174;6.614;2023-02-15T01:03:01;2.90;99.90
61841;DHT22;47773;53.174;6.614;2023-02-15T01:05:27;2.90;99.90
61841;DHT22;47773;53.174;6.614;2023-02-15T01:07:52;2.90;99.90
61841;DHT22;47773;53.174;6.614;2023-02-15T01:10:18;2.90;99.90
61841;DHT22;47773;53.174;6.614;2023-02-15T01:12:44;2.90;99.90
61841;DHT22;47773;53.174;6.614;2023-02-15T01:15:09;2.90;99.90
61841;DHT22;47773;53.174;6.614;2023-02-15T01:17:35;2.80;99.90
61841;DHT22;47773;53.174;6.614;2023-02-15T01:20:01;2.80;99.90
61841;DHT22;47773;53.174;6.614;2023-02-15T01:22:27;2.80;99.90
61841;DHT22;47773;53.174;6.614;2023-02-15T01:24:52;2.80;99.90
61841;DHT22;47773;53.174;6.614;2023-02-15T01:27:18;2.70;99.90
61841;DHT22;47773;53.174;6.614;2023-02-15T01:29:46;2.70;99.90
61841;DHT22;47773;53.174;6.614;2023-02-15T01:32:13;2.70;99.90
61841;DHT22;47773;53.174;6.614;2023-02-15T01:34:38;2.70;99.90
61841;DHT22;47773;53.174;6.614;2023-02-15T01:37:04;2.70;99.90
61841;DHT22;47773;53.174;6.614;2023-02-15T01:39:30;2.70;99.90
61841;DHT22;47773;53.174;6.614;2023-02-15T01:41:55;2.60;99.90
61841;DHT22;47773;53.174;6.614;2023-02-15T01:44:53;2.60;99.90
61841;DHT22;47773;53.174;6.614;2023-02-15T01:47:36;2.60;99.90
61841;DHT22;47773;53.174;6.614;2023-02-15T01:52:36;2.60;99.90
61841;DHT22;47773;53.174;6.614;2023-02-15T01:55:03;2.50;99.90
61841;DHT22;47773;53.174;6.614;2023-02-15T01:57:29;2.50;99.90
61841;DHT22;47773;53.174;6.614;2023-02-15T01:59:59;2.50;99.90
61841;DHT22;47773;53.174;6.614;2023-02-15T02:02:27;2.40;99.90
61841;DHT22;47773;53.174;6.614;2023-02-15T02:04:58;2.50;99.90
61841;DHT22;47773;53.174;6.614;2023-02-15T02:07:27;2.40;99.90
61841;DHT22;47773;53.174;6.614;2023-02-15T02:09:54;2.40;99.90
61841;DHT22;47773;53.174;6.614;2023-02-15T02:12:21;2.40;99.90
61841;DHT22;47773;53.174;6.614;2023-02-15T02:14:48;2.40;99.90
61841;DHT22;47773;53.174;6.614;2023-02-15T02:22:56;2.30;99.90
61841;DHT22;47773;53.174;6.614;2023-02-15T02:25:45;2.30;99.90
61841;DHT22;47773;53.174;6.614;2023-02-15T02:41:38;2.20;99.90
61841;DHT22;47773;53.174;6.614;2023-02-15T02:44:22;2.20;99.90
61841;DHT22;47773;53.174;6.614;2023-02-15T02:49:14;2.10;99.90
61841;DHT22;47773;53.174;6.614;2023-02-15T02:51:39;2.20;99.90
61841;DHT22;47773;53.174;6.614;2023-02-15T02:54:06;2.10;99.90
61841;DHT22;47773;53.174;6.614;2023-02-15T02:56:47;2.10;99.90
61841;DHT22;47773;53.174;6.614;2023-02-15T02:59:36;2.10;99.90
61841;DHT22;47773;53.174;6.614;2023-02-15T03:02:28;2.10;99.90
61841;DHT22;47773;53.174;6.614;2023-02-15T03:04:59;2.10;99.90
61841;DHT22;47773;53.174;6.614;2023-02-15T03:07:30;2.10;99.90
61841;DHT22;47773;53.174;6.614;2023-02-15T03:09:58;2.10;99.90
61841;DHT22;47773;53.174;6.614;2023-02-15T03:12:32;2.10;99.90
61841;DHT22;47773;53.174;6.614;2023-02-15T03:17:32;2.00;99.90
61841;DHT22;47773;53.174;6.614;2023-02-15T03:20:02;2.00;99.90
61841;DHT22;47773;53.174;6.614;2023-02-15T03:22:33;2.00;99.90
61841;DHT22;47773;53.174;6.614;2023-02-15T03:27:49;2.00;99.90
61841;DHT22;47773;53.174;6.614;2023-02-15T03:30:19;2.00;99.90
61841;DHT22;47773;53.174;6.614;2023-02-15T03:32:46;2.00;99.90
61841;DHT22;47773;53.174;6.614;2023-02-15T03:35:13;2.00;99.90
61841;DHT22;47773;53.174;6.614;2023-02-15T03:37:41;2.00;99.90
61841;DHT22;47773;53.174;6.614;2023-02-15T03:40:15;2.00;99.90
61841;DHT22;47773;53.174;6.614;2023-02-15T03:43:10;2.00;99.90
61841;DHT22;47773;53.174;6.614;2023-02-15T03:45:39;1.90;99.90
61841;DHT22;47773;53.174;6.614;2023-02-15T03:48:22;1.90;99.90
61841;DHT22;47773;53.174;6.614;2023-02-15T03:50:49;1.90;99.90
61841;DHT22;47773;53.174;6.614;2023-02-15T03:53:33;1.90;99.90
61841;DHT22;47773;53.174;6.614;2023-02-15T03:55:59;1.90;99.90
61841;DHT22;47773;53.174;6.614;2023-02-15T03:58:25;1.90;99.90
61841;DHT22;47773;53.174;6.614;2023-02-15T04:01:26;1.90;99.90
61841;DHT22;47773;53.174;6.614;2023-02-15T04:04:20;1.80;99.90
61841;DHT22;47773;53.174;6.614;2023-02-15T04:06:47;1.80;99.90
61841;DHT22;47773;53.174;6.614;2023-02-15T04:09:13;1.80;99.90
61841;DHT22;47773;53.174;6.614;2023-02-15T04:11:58;1.90;99.90
61841;DHT22;47773;53.174;6.614;2023-02-15T04:14:23;1.90;99.90
61841;DHT22;47773;53.174;6.614;2023-02-15T04:17:08;1.80;99.90
61841;DHT22;47773;53.174;6.614;2023-02-15T04:19:34;1.80;99.90
61841;DHT22;47773;53.174;6.614;2023-02-15T04:22:18;1.80;99.90
61841;DHT22;47773;53.174;6.614;2023-02-15T04:25:03;1.80;99.90
61841;DHT22;47773;53.174;6.614;2023-02-15T04:27:35;1.80;99.90
61841;DHT22;47773;53.174;6.614;2023-02-15T04:30:01;1.80;99.90
61841;DHT22;47773;53.174;6.614;2023-02-15T04:32:26;1.80;99.90
61841;DHT22;47773;53.174;6.614;2023-02-15T04:34:53;1.70;99.90
61841;DHT22;47773;53.174;6.614;2023-02-15T04:37:18;1.80;99.90
61841;DHT22;47773;53.174;6.614;2023-02-15T04:39:44;1.80;99.90
61841;DHT22;47773;53.174;6.614;2023-02-15T04:42:10;1.70;99.90
61841;DHT22;47773;53.174;6.614;2023-02-15T04:44:35;1.70;99.90
61841;DHT22;47773;53.174;6.614;2023-02-15T04:47:01;1.70;99.90
61841;DHT22;47773;53.174;6.614;2023-02-15T04:49:26;1.70;99.90
61841;DHT22;47773;53.174;6.614;2023-02-15T04:51:52;1.70;99.90
61841;DHT22;47773;53.174;6.614;2023-02-15T04:54:18;1.70;99.90
61841;DHT22;47773;53.174;6.614;2023-02-15T04:56:43;1.70;99.90
61841;DHT22;47773;53.174;6.614;2023-02-15T04:59:12;1.60;99.90
61841;DHT22;47773;53.174;6.614;2023-02-15T05:01:38;1.60;99.90
61841;DHT22;47773;53.174;6.614;2023-02-15T05:04:03;1.60;99.90
61841;DHT22;47773;53.174;6.614;2023-02-15T05:06:29;1.60;99.90
61841;DHT22;47773;53.174;6.614;2023-02-15T05:08:55;1.60;99.90
61841;DHT22;47773;53.174;6.614;2023-02-15T05:11:21;1.60;99.90
61841;DHT22;47773;53.174;6.614;2023-02-15T05:13:46;1.60;99.90
61841;DHT22;47773;53.174;6.614;2023-02-15T05:16:12;1.60;99.90
61841;DHT22;47773;53.174;6.614;2023-02-15T05:18:38;1.60;99.90
61841;DHT22;47773;53.174;6.614;2023-02-15T05:21:04;1.60;99.90
61841;DHT22;47773;53.174;6.614;2023-02-15T05:23:29;1.60;99.90
61841;DHT22;47773;53.174;6.614;2023-02-15T05:25:55;1.60;99.90
61841;DHT22;47773;53.174;6.614;2023-02-15T05:28:39;1.60;99.90
61841;DHT22;47773;53.174;6.614;2023-02-15T05:31:11;1.60;99.90
61841;DHT22;47773;53.174;6.614;2023-02-15T05:33:37;1.60;99.90
61841;DHT22;47773;53.174;6.614;2023-02-15T05:36:04;1.60;99.90
61841;DHT22;47773;53.174;6.614;2023-02-15T05:38:31;1.60;99.90
61841;DHT22;47773;53.174;6.614;2023-02-15T05:40:57;1.60;99.90
61841;DHT22;47773;53.174;6.614;2023-02-15T05:43:23;1.60;99.90
61841;DHT22;47773;53.174;6.614;2023-02-15T05:45:53;1.60;99.90
61841;DHT22;47773;53.174;6.614;2023-02-15T05:48:20;1.60;99.90
61841;DHT22;47773;53.174;6.614;2023-02-15T05:50:46;1.60;99.90
61841;DHT22;47773;53.174;6.614;2023-02-15T05:53:12;1.60;99.90
61841;DHT22;47773;53.174;6.614;2023-02-15T05:55:39;1.50;99.90
61841;DHT22;47773;53.174;6.614;2023-02-15T05:58:06;1.50;99.90
61841;DHT22;47773;53.174;6.614;2023-02-15T06:00:31;1.50;99.90
61841;DHT22;47773;53.174;6.614;2023-02-15T06:02:57;1.50;99.90
61841;DHT22;47773;53.174;6.614;2023-02-15T06:05:23;1.50;99.90
61841;DHT22;47773;53.174;6.614;2023-02-15T06:07:48;1.50;99.90
61841;DHT22;47773;53.174;6.614;2023-02-15T06:10:14;1.50;99.90
61841;DHT22;47773;53.174;6.614;2023-02-15T06:12:39;1.50;99.90
61841;DHT22;47773;53.174;6.614;2023-02-15T06:15:05;1.50;99.90
61841;DHT22;47773;53.174;6.614;2023-02-15T06:17:31;1.50;99.90
61841;DHT22;47773;53.174;6.614;2023-02-15T06:19:56;1.50;99.90
61841;DHT22;47773;53.174;6.614;2023-02-15T06:22:22;1.50;99.90
61841;DHT22;47773;53.174;6.614;2023-02-15T06:24:48;1.50;99.90
61841;DHT22;47773;53.174;6.614;2023-02-15T06:27:14;1.50;99.90
61841;DHT22;47773;53.174;6.614;2023-02-15T06:29:39;1.50;99.90
61841;DHT22;47773;53.174;6.614;2023-02-15T06:32:05;1.50;99.90
61841;DHT22;47773;53.174;6.614;2023-02-15T06:34:31;1.50;99.90
61841;DHT22;47773;53.174;6.614;2023-02-15T06:36:57;1.50;99.90
61841;DHT22;47773;53.174;6.614;2023-02-15T06:39:23;1.50;99.90
61841;DHT22;47773;53.174;6.614;2023-02-15T06:41:48;1.50;99.90
61841;DHT22;47773;53.174;6.614;2023-02-15T06:44:14;1.50;99.90
61841;DHT22;47773;53.174;6.614;2023-02-15T06:46:40;1.50;99.90
61841;DHT22;47773;53.174;6.614;2023-02-15T06:49:06;1.50;99.90
61841;DHT22;47773;53.174;6.614;2023-02-15T06:51:31;1.50;99.90
61841;DHT22;47773;53.174;6.614;2023-02-15T06:53:57;1.60;99.90
61841;DHT22;47773;53.174;6.614;2023-02-15T06:56:22;1.70;99.90
61841;DHT22;47773;53.174;6.614;2023-02-15T06:58:48;1.70;99.90
61841;DHT22;47773;53.174;6.614;2023-02-15T07:01:18;1.80;99.90
61841;DHT22;47773;53.174;6.614;2023-02-15T07:03:43;1.80;99.90
61841;DHT22;47773;53.174;6.614;2023-02-15T07:06:09;1.80;99.90
61841;DHT22;47773;53.174;6.614;2023-02-15T07:08:37;1.80;99.90
61841;DHT22;47773;53.174;6.614;2023-02-15T07:11:04;1.90;99.90
61841;DHT22;47773;53.174;6.614;2023-02-15T07:13:48;1.90;99.90
61841;DHT22;47773;53.174;6.614;2023-02-15T07:16:14;2.00;99.90
61841;DHT22;47773;53.174;6.614;2023-02-15T07:18:40;2.00;99.90
61841;DHT22;47773;53.174;6.614;2023-02-15T07:21:06;2.10;99.90
61841;DHT22;47773;53.174;6.614;2023-02-15T07:23:38;2.10;99.90
61841;DHT22;47773;53.174;6.614;2023-02-15T07:26:05;2.20;99.90
61841;DHT22;47773;53.174;6.614;2023-02-15T07:28:33;2.20;99.90
61841;DHT22;47773;53.174;6.614;2023-02-15T07:31:01;2.40;99.90
61841;DHT22;47773;53.174;6.614;2023-02-15T07:33:27;2.40;99.90
61841;DHT22;47773;53.174;6.614;2023-02-15T07:35:59;2.50;99.90
61841;DHT22;47773;53.174;6.614;2023-02-15T07:38:26;2.50;99.90
61841;DHT22;47773;53.174;6.614;2023-02-15T07:41:07;2.60;99.90
61841;DHT22;47773;53.174;6.614;2023-02-15T07:43:36;2.60;99.90
61841;DHT22;47773;53.174;6.614;2023-02-15T07:46:04;2.70;99.90
61841;DHT22;47773;53.174;6.614;2023-02-15T07:48:30;2.80;99.90
61841;DHT22;47773;53.174;6.614;2023-02-15T07:51:03;2.90;99.90
61841;DHT22;47773;53.174;6.614;2023-02-15T07:53:30;3.00;99.90
61841;DHT22;47773;53.174;6.614;2023-02-15T07:56:00;3.10;99.90
61841;DHT22;47773;53.174;6.614;2023-02-15T07:58:26;3.20;99.90
61841;DHT22;47773;53.174;6.614;2023-02-15T08:01:12;3.30;99.90
61841;DHT22;47773;53.174;6.614;2023-02-15T08:03:38;3.40;99.90
61841;DHT22;47773;53.174;6.614;2023-02-15T08:06:04;3.40;99.90
61841;DHT22;47773;53.174;6.614;2023-02-15T08:08:29;3.50;99.90
61841;DHT22;47773;53.174;6.614;2023-02-15T08:11:15;3.50;99.90
61841;DHT22;47773;53.174;6.614;2023-02-15T08:14:02;3.60;99.90
61841;DHT22;47773;53.174;6.614;2023-02-15T08:16:36;3.70;99.90
61841;DHT22;47773;53.174;6.614;2023-02-15T08:19:31;3.80;99.90
61841;DHT22;47773;53.174;6.614;2023-02-15T08:21:59;3.90;99.90
61841;DHT22;47773;53.174;6.614;2023-02-15T08:24:29;3.90;99.90
61841;DHT22;47773;53.174;6.614;2023-02-15T08:26:56;4.00;99.90
61841;DHT22;47773;53.174;6.614;2023-02-15T08:29:24;4.10;99.90
61841;DHT22;47773;53.174;6.614;2023-02-15T08:31:53;4.10;99.90
61841;DHT22;47773;53.174;6.614;2023-02-15T08:34:20;4.20;99.90
61841;DHT22;47773;53.174;6.614;2023-02-15T08:36:46;4.30;99.90
61841;DHT22;47773;53.174;6.614;2023-02-15T08:39:14;4.40;99.90
61841;DHT22;47773;53.174;6.614;2023-02-15T08:41:42;4.50;99.90
61841;DHT22;47773;53.174;6.614;2023-02-15T08:44:08;4.50;99.90
61841;DHT22;47773;53.174;6.614;2023-02-15T08:46:37;4.60;99.90
61841;DHT22;47773;53.174;6.614;2023-02-15T08:49:03;4.60;99.90
61841;DHT22;47773;53.174;6.614;2023-02-15T08:51:31;4.70;99.90
61841;DHT22;47773;53.174;6.614;2023-02-15T08:53:59;4.70;99.90
61841;DHT22;47773;53.174;6.614;2023-02-15T08:56:30;4.70;99.90
61841;DHT22;47773;53.174;6.614;2023-02-15T08:58:57;4.80;99.90
61841;DHT22;47773;53.174;6.614;2023-02-15T09:01:24;4.80;99.90
61841;DHT22;47773;53.174;6.614;2023-02-15T09:03:54;4.90;99.90
61841;DHT22;47773;53.174;6.614;2023-02-15T09:06:21;5.00;99.90
61841;DHT22;47773;53.174;6.614;2023-02-15T09:08:48;5.00;99.90
61841;DHT22;47773;53.174;6.614;2023-02-15T09:11:19;5.20;99.90
61841;DHT22;47773;53.174;6.614;2023-02-15T09:13:52;5.20;99.90
61841;DHT22;47773;53.174;6.614;2023-02-15T09:16:19;5.20;99.90
61841;DHT22;47773;53.174;6.614;2023-02-15T09:18:45;5.20;99.90
61841;DHT22;47773;53.174;6.614;2023-02-15T09:21:17;5.20;99.90
61841;DHT22;47773;53.174;6.614;2023-02-15T09:23:45;5.30;99.90
61841;DHT22;47773;53.174;6.614;2023-02-15T09:26:17;5.30;99.90
61841;DHT22;47773;53.174;6.614;2023-02-15T09:28:43;5.30;99.90
61841;DHT22;47773;53.174;6.614;2023-02-15T09:33:38;5.50;99.90
61841;DHT22;47773;53.174;6.614;2023-02-15T09:36:06;5.60;99.90
61841;DHT22;47773;53.174;6.614;2023-02-15T09:38:38;5.70;99.90
61841;DHT22;47773;53.174;6.614;2023-02-15T09:41:38;5.80;99.90
61841;DHT22;47773;53.174;6.614;2023-02-15T09:55:20;6.30;99.90
61841;DHT22;47773;53.174;6.614;2023-02-15T10:00:51;6.50;99.90
61841;DHT22;47773;53.174;6.614;2023-02-15T10:03:37;6.60;99.90
61841;DHT22;47773;53.174;6.614;2023-02-15T10:06:25;6.80;99.90
61841;DHT22;47773;53.174;6.614;2023-02-15T10:09:12;6.90;99.90
61841;DHT22;47773;53.174;6.614;2023-02-15T10:11:54;7.00;99.90
61841;DHT22;47773;53.174;6.614;2023-02-15T10:28:48;7.60;99.90
61841;DHT22;47773;53.174;6.614;2023-02-15T10:34:09;7.70;99.90
61841;DHT22;47773;53.174;6.614;2023-02-15T10:36:44;7.70;99.90
61841;DHT22;47773;53.174;6.614;2023-02-15T10:39:25;7.70;99.90
61841;DHT22;47773;53.174;6.614;2023-02-15T10:50:59;8.00;99.90
61841;DHT22;47773;53.174;6.614;2023-02-15T10:57:01;8.20;99.90
61841;DHT22;47773;53.174;6.614;2023-02-15T11:00:01;8.30;99.90
61841;DHT22;47773;53.174;6.614;2023-02-15T11:08:23;8.70;99.90
61841;DHT22;47773;53.174;6.614;2023-02-15T11:11:02;8.70;99.90
61841;DHT22;47773;53.174;6.614;2023-02-15T11:13:34;8.70;99.90
61841;DHT22;47773;53.174;6.614;2023-02-15T11:19:12;8.80;99.90
61841;DHT22;47773;53.174;6.614;2023-02-15T11:21:33;8.90;99.90
61841;DHT22;47773;53.174;6.614;2023-02-15T11:24:15;8.90;99.90
61841;DHT22;47773;53.174;6.614;2023-02-15T11:26:53;8.90;99.90
61841;DHT22;47773;53.174;6.614;2023-02-15T11:31:54;9.10;99.90
61841;DHT22;47773;53.174;6.614;2023-02-15T11:34:22;9.10;99.90
61841;DHT22;47773;53.174;6.614;2023-02-15T11:36:52;9.10;99.90
61841;DHT22;47773;53.174;6.614;2023-02-15T11:39:20;9.10;99.90
61841;DHT22;47773;53.174;6.614;2023-02-15T11:41:55;9.20;99.90
61841;DHT22;47773;53.174;6.614;2023-02-15T11:44:26;9.20;99.90
61841;DHT22;47773;53.174;6.614;2023-02-15T11:46:53;9.30;99.90
61841;DHT22;47773;53.174;6.614;2023-02-15T11:49:31;9.40;99.90
61841;DHT22;47773;53.174;6.614;2023-02-15T11:51:58;9.40;99.90
61841;DHT22;47773;53.174;6.614;2023-02-15T11:54:28;9.50;99.90
61841;DHT22;47773;53.174;6.614;2023-02-15T11:57:01;9.60;99.90
61841;DHT22;47773;53.174;6.614;2023-02-15T11:59:35;9.70;99.90
61841;DHT22;47773;53.174;6.614;2023-02-15T12:02:02;9.70;99.90
61841;DHT22;47773;53.174;6.614;2023-02-15T12:04:36;9.90;99.90
61841;DHT22;47773;53.174;6.614;2023-02-15T12:10:27;10.00;99.90
61841;DHT22;47773;53.174;6.614;2023-02-15T12:13:10;10.20;99.90
61841;DHT22;47773;53.174;6.614;2023-02-15T12:15:36;10.30;99.90
61841;DHT22;47773;53.174;6.614;2023-02-15T12:18:03;10.30;99.90
61841;DHT22;47773;53.174;6.614;2023-02-15T12:20:33;10.40;99.90
61841;DHT22;47773;53.174;6.614;2023-02-15T12:23:06;10.50;99.90
61841;DHT22;47773;53.174;6.614;2023-02-15T12:25:52;10.50;99.90
61841;DHT22;47773;53.174;6.614;2023-02-15T12:30:53;10.60;99.90
61841;DHT22;47773;53.174;6.614;2023-02-15T12:33:34;10.60;99.90
61841;DHT22;47773;53.174;6.614;2023-02-15T12:36:12;10.60;99.90
61841;DHT22;47773;53.174;6.614;2023-02-15T12:38:40;10.60;99.90
61841;DHT22;47773;53.174;6.614;2023-02-15T12:41:24;10.60;99.90
61841;DHT22;47773;53.174;6.614;2023-02-15T12:44:05;10.60;99.90
61841;DHT22;47773;53.174;6.614;2023-02-15T12:46:31;10.60;99.90
61841;DHT22;47773;53.174;6.614;2023-02-15T12:51:48;10.80;99.90
61841;DHT22;47773;53.174;6.614;2023-02-15T12:54:28;10.80;99.90
61841;DHT22;47773;53.174;6.614;2023-02-15T12:56:54;10.90;99.90
61841;DHT22;47773;53.174;6.614;2023-02-15T12:59:20;10.90;99.90
61841;DHT22;47773;53.174;6.614;2023-02-15T13:01:46;10.90;99.90
61841;DHT22;47773;53.174;6.614;2023-02-15T13:04:23;11.00;99.90
61841;DHT22;47773;53.174;6.614;2023-02-15T13:06:52;10.90;99.90
61841;DHT22;47773;53.174;6.614;2023-02-15T13:09:37;10.90;99.90
61841;DHT22;47773;53.174;6.614;2023-02-15T13:12:22;10.90;99.90
61841;DHT22;47773;53.174;6.614;2023-02-15T13:14:51;10.90;99.90
61841;DHT22;47773;53.174;6.614;2023-02-15T13:17:18;10.90;99.90
61841;DHT22;47773;53.174;6.614;2023-02-15T13:19:48;10.90;99.90
61841;DHT22;47773;53.174;6.614;2023-02-15T13:22:31;10.90;99.90
61841;DHT22;47773;53.174;6.614;2023-02-15T13:25:03;10.90;99.90
61841;DHT22;47773;53.174;6.614;2023-02-15T13:27:38;11.00;99.90
61841;DHT22;47773;53.174;6.614;2023-02-15T13:32:45;11.00;99.90
61841;DHT22;47773;53.174;6.614;2023-02-15T13:35:16;11.00;99.90
61841;DHT22;47773;53.174;6.614;2023-02-15T13:40:57;11.00;99.90
61841;DHT22;47773;53.174;6.614;2023-02-15T13:52:07;11.10;99.90
61841;DHT22;47773;53.174;6.614;2023-02-15T13:54:45;11.10;99.90
61841;DHT22;47773;53.174;6.614;2023-02-15T14:10:48;11.00;99.90
61841;DHT22;47773;53.174;6.614;2023-02-15T14:16:13;11.10;99.90
61841;DHT22;47773;53.174;6.614;2023-02-15T14:19:01;11.10;99.90
61841;DHT22;47773;53.174;6.614;2023-02-15T14:21:31;11.10;99.90
61841;DHT22;47773;53.174;6.614;2023-02-15T14:29:49;11.10;99.90
61841;DHT22;47773;53.174;6.614;2023-02-15T14:32:34;11.10;99.90
61841;DHT22;47773;53.174;6.614;2023-02-15T14:35:19;11.10;99.90
61841;DHT22;47773;53.174;6.614;2023-02-15T14:37:57;11.10;99.90
61841;DHT22;47773;53.174;6.614;2023-02-15T14:48:32;11.00;99.90
61841;DHT22;47773;53.174;6.614;2023-02-15T14:50:58;11.00;99.90
61841;DHT22;47773;53.174;6.614;2023-02-15T14:53:37;11.00;99.90
61841;DHT22;47773;53.174;6.614;2023-02-15T15:01:31;10.90;99.90
61841;DHT22;47773;53.174;6.614;2023-02-15T15:04:01;10.90;99.90
61841;DHT22;47773;53.174;6.614;2023-02-15T15:06:32;10.90;99.90
61841;DHT22;47773;53.174;6.614;2023-02-15T15:09:19;10.80;99.90
61841;DHT22;47773;53.174;6.614;2023-02-15T15:11:52;10.80;99.90
61841;DHT22;47773;53.174;6.614;2023-02-15T15:14:44;10.70;99.90
61841;DHT22;47773;53.174;6.614;2023-02-15T15:17:11;10.70;99.90
61841;DHT22;47773;53.174;6.614;2023-02-15T15:19:58;10.60;99.90
61841;DHT22;47773;53.174;6.614;2023-02-15T15:22:26;10.60;99.90
61841;DHT22;47773;53.174;6.614;2023-02-15T15:25:00;10.60;99.90
61841;DHT22;47773;53.174;6.614;2023-02-15T15:27:55;10.50;99.90
61841;DHT22;47773;53.174;6.614;2023-02-15T15:47:10;10.20;99.90
61841;DHT22;47773;53.174;6.614;2023-02-15T15:49:40;10.20;99.90
61841;DHT22;47773;53.174;6.614;2023-02-15T15:52:18;10.20;99.90
61841;DHT22;47773;53.174;6.614;2023-02-15T15:54:46;10.10;99.90
61841;DHT22;47773;53.174;6.614;2023-02-15T15:59:49;10.00;99.90
61841;DHT22;47773;53.174;6.614;2023-02-15T16:02:16;10.00;99.90
61841;DHT22;47773;53.174;6.614;2023-02-15T16:04:42;10.00;99.90
61841;DHT22;47773;53.174;6.614;2023-02-15T16:10:16;9.90;99.90
61841;DHT22;47773;53.174;6.614;2023-02-15T16:12:46;9.80;99.90
61841;DHT22;47773;53.174;6.614;2023-02-15T16:17:43;9.70;99.90
61841;DHT22;47773;53.174;6.614;2023-02-15T16:20:39;9.70;99.90
61841;DHT22;47773;53.174;6.614;2023-02-15T16:29:16;9.50;99.90
61841;DHT22;47773;53.174;6.614;2023-02-15T16:31:42;9.40;99.90
61841;DHT22;47773;53.174;6.614;2023-02-15T16:34:18;9.40;99.90
61841;DHT22;47773;53.174;6.614;2023-02-15T16:36:43;9.30;99.90
61841;DHT22;47773;53.174;6.614;2023-02-15T16:39:18;9.30;99.90
61841;DHT22;47773;53.174;6.614;2023-02-15T16:41:44;9.20;99.90
61841;DHT22;47773;53.174;6.614;2023-02-15T16:44:20;9.20;99.90
61841;DHT22;47773;53.174;6.614;2023-02-15T16:46:50;9.20;99.90
61841;DHT22;47773;53.174;6.614;2023-02-15T16:49:25;9.20;99.90
61841;DHT22;47773;53.174;6.614;2023-02-15T16:52:00;9.10;99.90
61841;DHT22;47773;53.174;6.614;2023-02-15T16:54:27;9.00;99.90
61841;DHT22;47773;53.174;6.614;2023-02-15T16:56:54;9.10;99.90
61841;DHT22;47773;53.174;6.614;2023-02-15T16:59:39;9.00;99.90
61841;DHT22;47773;53.174;6.614;2023-02-15T17:02:29;8.90;99.90
61841;DHT22;47773;53.174;6.614;2023-02-15T17:07:40;8.80;99.90
61841;DHT22;47773;53.174;6.614;2023-02-15T17:10:27;8.80;99.90
61841;DHT22;47773;53.174;6.614;2023-02-15T17:12:54;8.70;99.90
61841;DHT22;47773;53.174;6.614;2023-02-15T17:15:27;8.70;99.90
61841;DHT22;47773;53.174;6.614;2023-02-15T17:17:56;8.60;99.90
61841;DHT22;47773;53.174;6.614;2023-02-15T17:20:23;8.60;99.90
61841;DHT22;47773;53.174;6.614;2023-02-15T17:22:49;8.50;99.90
61841;DHT22;47773;53.174;6.614;2023-02-15T17:25:43;8.50;99.90
61841;DHT22;47773;53.174;6.614;2023-02-15T17:28:23;8.50;99.90
61841;DHT22;47773;53.174;6.614;2023-02-15T17:30:52;8.50;99.90
61841;DHT22;47773;53.174;6.614;2023-02-15T17:36:05;8.30;99.90
61841;DHT22;47773;53.174;6.614;2023-02-15T17:38:32;8.30;99.90
61841;DHT22;47773;53.174;6.614;2023-02-15T17:40:58;8.30;99.90
61841;DHT22;47773;53.174;6.614;2023-02-15T17:43:27;8.20;99.90
61841;DHT22;47773;53.174;6.614;2023-02-15T17:45:53;8.20;99.90
61841;DHT22;47773;53.174;6.614;2023-02-15T17:48:37;8.10;99.90
61841;DHT22;47773;53.174;6.614;2023-02-15T17:51:09;8.10;99.90
61841;DHT22;47773;53.174;6.614;2023-02-15T17:53:36;8.10;99.90
61841;DHT22;47773;53.174;6.614;2023-02-15T17:56:02;8.00;99.90
61841;DHT22;47773;53.174;6.614;2023-02-15T17:58:35;8.00;99.90
61841;DHT22;47773;53.174;6.614;2023-02-15T18:01:09;8.00;99.90
61841;DHT22;47773;53.174;6.614;2023-02-15T18:03:54;8.00;99.90
61841;DHT22;47773;53.174;6.614;2023-02-15T18:06:40;8.00;99.90
61841;DHT22;47773;53.174;6.614;2023-02-15T18:09:25;7.90;99.90
61841;DHT22;47773;53.174;6.614;2023-02-15T18:12:21;7.90;99.90
61841;DHT22;47773;53.174;6.614;2023-02-15T18:14:48;8.00;99.90
61841;DHT22;47773;53.174;6.614;2023-02-15T18:17:15;7.90;99.90
61841;DHT22;47773;53.174;6.614;2023-02-15T18:19:43;7.90;99.90
61841;DHT22;47773;53.174;6.614;2023-02-15T18:22:11;7.90;99.90
61841;DHT22;47773;53.174;6.614;2023-02-15T18:24:37;7.90;99.90
61841;DHT22;47773;53.174;6.614;2023-02-15T18:27:04;7.90;99.90
61841;DHT22;47773;53.174;6.614;2023-02-15T18:29:30;7.80;99.90
61841;DHT22;47773;53.174;6.614;2023-02-15T18:31:58;7.80;99.90
61841;DHT22;47773;53.174;6.614;2023-02-15T18:34:37;7.80;99.90
61841;DHT22;47773;53.174;6.614;2023-02-15T18:37:05;7.80;99.90
61841;DHT22;47773;53.174;6.614;2023-02-15T18:39:44;7.80;99.90
61841;DHT22;47773;53.174;6.614;2023-02-15T18:42:31;7.70;99.90
61841;DHT22;47773;53.174;6.614;2023-02-15T18:44:59;7.70;99.90
61841;DHT22;47773;53.174;6.614;2023-02-15T18:47:25;7.70;99.90
61841;DHT22;47773;53.174;6.614;2023-02-15T18:49:52;7.70;99.90
61841;DHT22;47773;53.174;6.614;2023-02-15T18:52:21;7.60;99.90
61841;DHT22;47773;53.174;6.614;2023-02-15T18:54:52;7.60;99.90
61841;DHT22;47773;53.174;6.614;2023-02-15T18:57:18;7.60;99.90
61841;DHT22;47773;53.174;6.614;2023-02-15T18:59:44;7.60;99.90
61841;DHT22;47773;53.174;6.614;2023-02-15T19:02:15;7.60;99.90
61841;DHT22;47773;53.174;6.614;2023-02-15T19:04:41;7.60;99.90
61841;DHT22;47773;53.174;6.614;2023-02-15T19:07:21;7.60;99.90
61841;DHT22;47773;53.174;6.614;2023-02-15T19:09:51;7.50;99.90